Pingree, North Dakota
Current Conditions -  °F | °C
As of 6:56 PM on Monday 22 Dec 2014 (Local Time) from KJMS Reporting Station
Haze Haze  
Wind Chill: 26°   Ceiling: 400
Heat Index: 34°   Visibility: 1.2mi
Dew Point: 33°   Wind: 10mph
Humidity: 96%   Direction: 40°NE
Pressure: 29.58"   Gusts: NA
Location:  47.16°N, 98.91°W
Report Text: KJMS 230056Z AUTO 04009KT 1 1/4SM BR OVC004 01/01 A2958 RMK AO2 RAE39 SLP033 P0000 T00110006
Loading
Personal Weather Stations






























Interactive Weather Map New forecast layout! Learn more

10-Day Weather Forecast

Advertisements
Track Severe Weather on mobile